Ruston, Louisiana
Current Conditions -  °F | °C
As of 10:15 AM on Thursday 18 Dec 2014 (Local Time) from KRSN Reporting Station
Overcast Overcast  
Wind Chill: 43°   Ceiling: 500
Heat Index: 46°   Visibility: 7mi
Dew Point: 45°   Wind: 5mph
Humidity: 99%   Direction: 100°E
Pressure: 30.23"   Gusts: NA
Location:  32.53°N, 92.64°W
Report Text: KRSN 181615Z AUTO 10004KT 7SM BKN005 OVC024 08/07 A3023 RMK AO2 T00750073
Loading
Personal Weather Stations






























Interactive Weather Map New forecast layout! Learn more

10-Day Weather Forecast

Advertisements
Track Severe Weather on mobile